sensor_id;sensor_type;location;lat;lon;timestamp;temperature;humidity
41922;DHT22;27609;51.002;5.354;2022-12-29T00:02:20;11.10;99.90
41922;DHT22;27609;51.002;5.354;2022-12-29T00:04:45;11.10;99.90
41922;DHT22;27609;51.002;5.354;2022-12-29T00:07:11;11.10;99.90
41922;DHT22;27609;51.002;5.354;2022-12-29T00:09:37;11.10;99.90
41922;DHT22;27609;51.002;5.354;2022-12-29T00:12:03;11.10;99.90
41922;DHT22;27609;51.002;5.354;2022-12-29T00:14:29;11.20;99.90
41922;DHT22;27609;51.002;5.354;2022-12-29T00:17:33;11.20;99.90
41922;DHT22;27609;51.002;5.354;2022-12-29T00:19:59;11.30;99.90
41922;DHT22;27609;51.002;5.354;2022-12-29T00:22:43;11.30;99.90
41922;DHT22;27609;51.002;5.354;2022-12-29T00:25:28;11.50;99.90
41922;DHT22;27609;51.002;5.354;2022-12-29T00:28:12;11.50;99.90
41922;DHT22;27609;51.002;5.354;2022-12-29T00:31:00;11.50;99.90
41922;DHT22;27609;51.002;5.354;2022-12-29T00:33:45;11.70;99.90
41922;DHT22;27609;51.002;5.354;2022-12-29T00:36:34;11.80;99.90
41922;DHT22;27609;51.002;5.354;2022-12-29T00:39:07;11.80;99.90
41922;DHT22;27609;51.002;5.354;2022-12-29T00:41:53;11.90;99.90
41922;DHT22;27609;51.002;5.354;2022-12-29T00:44:37;12.00;99.90
41922;DHT22;27609;51.002;5.354;2022-12-29T00:47:03;12.00;99.90
41922;DHT22;27609;51.002;5.354;2022-12-29T00:49:30;12.00;99.90
41922;DHT22;27609;51.002;5.354;2022-12-29T00:54:23;12.00;99.90
41922;DHT22;27609;51.002;5.354;2022-12-29T00:56:50;11.90;99.90
41922;DHT22;27609;51.002;5.354;2022-12-29T00:59:17;12.00;99.90
41922;DHT22;27609;51.002;5.354;2022-12-29T01:01:43;11.90;99.90
41922;DHT22;27609;51.002;5.354;2022-12-29T01:04:10;12.00;99.90
41922;DHT22;27609;51.002;5.354;2022-12-29T01:06:37;11.90;99.90
41922;DHT22;27609;51.002;5.354;2022-12-29T01:09:03;11.90;99.90
41922;DHT22;27609;51.002;5.354;2022-12-29T01:11:47;12.00;99.90
41922;DHT22;27609;51.002;5.354;2022-12-29T01:14:13;12.00;99.90
41922;DHT22;27609;51.002;5.354;2022-12-29T01:16:39;11.90;99.90
41922;DHT22;27609;51.002;5.354;2022-12-29T01:19:05;12.00;99.90
41922;DHT22;27609;51.002;5.354;2022-12-29T01:21:31;12.00;99.90
41922;DHT22;27609;51.002;5.354;2022-12-29T01:23:57;12.00;99.90
41922;DHT22;27609;51.002;5.354;2022-12-29T01:26:23;12.00;99.90
41922;DHT22;27609;51.002;5.354;2022-12-29T01:28:48;12.00;99.90
41922;DHT22;27609;51.002;5.354;2022-12-29T01:31:15;12.00;99.90
41922;DHT22;27609;51.002;5.354;2022-12-29T01:33:42;12.00;99.90
41922;DHT22;27609;51.002;5.354;2022-12-29T01:36:13;12.10;99.90
41922;DHT22;27609;51.002;5.354;2022-12-29T01:38:40;12.00;99.90
41922;DHT22;27609;51.002;5.354;2022-12-29T01:41:07;12.00;99.90
41922;DHT22;27609;51.002;5.354;2022-12-29T01:48:42;12.00;99.90
41922;DHT22;27609;51.002;5.354;2022-12-29T01:51:08;12.00;99.90
41922;DHT22;27609;51.002;5.354;2022-12-29T01:53:35;12.00;99.90
41922;DHT22;27609;51.002;5.354;2022-12-29T01:56:05;12.00;99.90
41922;DHT22;27609;51.002;5.354;2022-12-29T01:58:35;12.00;99.90
41922;DHT22;27609;51.002;5.354;2022-12-29T02:01:03;11.90;99.90
41922;DHT22;27609;51.002;5.354;2022-12-29T02:03:30;11.70;99.90
41922;DHT22;27609;51.002;5.354;2022-12-29T02:06:15;11.50;99.90
41922;DHT22;27609;51.002;5.354;2022-12-29T02:08:43;11.40;99.90
41922;DHT22;27609;51.002;5.354;2022-12-29T02:11:11;11.30;99.90
41922;DHT22;27609;51.002;5.354;2022-12-29T02:13:37;11.30;99.90
41922;DHT22;27609;51.002;5.354;2022-12-29T02:16:27;11.20;99.90
41922;DHT22;27609;51.002;5.354;2022-12-29T02:27:26;11.10;99.90
41922;DHT22;27609;51.002;5.354;2022-12-29T02:30:31;11.10;99.90
41922;DHT22;27609;51.002;5.354;2022-12-29T02:47:22;11.40;99.90
41922;DHT22;27609;51.002;5.354;2022-12-29T02:52:54;11.20;99.90
41922;DHT22;27609;51.002;5.354;2022-12-29T02:55:22;11.20;99.90
41922;DHT22;27609;51.002;5.354;2022-12-29T02:57:48;11.00;99.90
41922;DHT22;27609;51.002;5.354;2022-12-29T03:00:16;11.00;99.90
41922;DHT22;27609;51.002;5.354;2022-12-29T03:02:58;10.90;99.90
41922;DHT22;27609;51.002;5.354;2022-12-29T03:05:57;10.90;99.90
41922;DHT22;27609;51.002;5.354;2022-12-29T03:08:45;10.80;99.90
41922;DHT22;27609;51.002;5.354;2022-12-29T03:11:13;10.80;99.90
41922;DHT22;27609;51.002;5.354;2022-12-29T03:17:08;10.80;99.90
41922;DHT22;27609;51.002;5.354;2022-12-29T03:19:41;10.90;99.90
41922;DHT22;27609;51.002;5.354;2022-12-29T03:22:15;10.90;99.90
41922;DHT22;27609;51.002;5.354;2022-12-29T03:25:03;11.00;99.90
41922;DHT22;27609;51.002;5.354;2022-12-29T03:27:35;11.00;99.90
41922;DHT22;27609;51.002;5.354;2022-12-29T03:30:04;11.00;99.90
41922;DHT22;27609;51.002;5.354;2022-12-29T03:32:38;11.00;99.90
41922;DHT22;27609;51.002;5.354;2022-12-29T03:35:05;11.00;99.90
41922;DHT22;27609;51.002;5.354;2022-12-29T03:37:41;11.00;99.90
41922;DHT22;27609;51.002;5.354;2022-12-29T03:40:07;11.00;99.90
41922;DHT22;27609;51.002;5.354;2022-12-29T03:42:35;11.00;99.90
41922;DHT22;27609;51.002;5.354;2022-12-29T03:45:04;11.10;99.90
41922;DHT22;27609;51.002;5.354;2022-12-29T03:47:30;11.10;99.90
41922;DHT22;27609;51.002;5.354;2022-12-29T03:49:56;11.20;99.90
41922;DHT22;27609;51.002;5.354;2022-12-29T03:52:21;11.20;99.90
41922;DHT22;27609;51.002;5.354;2022-12-29T03:54:47;11.20;99.90
41922;DHT22;27609;51.002;5.354;2022-12-29T03:57:13;11.10;99.90
41922;DHT22;27609;51.002;5.354;2022-12-29T03:59:38;11.10;99.90
41922;DHT22;27609;51.002;5.354;2022-12-29T04:02:04;11.00;99.90
41922;DHT22;27609;51.002;5.354;2022-12-29T04:04:30;10.90;99.90
41922;DHT22;27609;51.002;5.354;2022-12-29T04:06:55;10.90;99.90
41922;DHT22;27609;51.002;5.354;2022-12-29T04:09:21;10.90;99.90
41922;DHT22;27609;51.002;5.354;2022-12-29T04:11:46;10.90;99.90
41922;DHT22;27609;51.002;5.354;2022-12-29T04:14:12;10.90;99.90
41922;DHT22;27609;51.002;5.354;2022-12-29T04:16:38;11.00;99.90
41922;DHT22;27609;51.002;5.354;2022-12-29T04:19:05;11.00;99.90
41922;DHT22;27609;51.002;5.354;2022-12-29T04:21:31;11.10;99.90
41922;DHT22;27609;51.002;5.354;2022-12-29T04:23:57;11.00;99.90
41922;DHT22;27609;51.002;5.354;2022-12-29T04:26:23;10.90;99.90
41922;DHT22;27609;51.002;5.354;2022-12-29T04:28:48;10.90;99.90
41922;DHT22;27609;51.002;5.354;2022-12-29T04:31:14;10.80;99.90
41922;DHT22;27609;51.002;5.354;2022-12-29T04:33:39;10.80;99.90
41922;DHT22;27609;51.002;5.354;2022-12-29T04:36:05;10.80;99.90
41922;DHT22;27609;51.002;5.354;2022-12-29T04:38:31;10.80;99.90
41922;DHT22;27609;51.002;5.354;2022-12-29T04:40:59;10.70;99.90
41922;DHT22;27609;51.002;5.354;2022-12-29T04:43:32;10.70;99.90
41922;DHT22;27609;51.002;5.354;2022-12-29T04:45:58;10.70;99.90
41922;DHT22;27609;51.002;5.354;2022-12-29T04:48:24;10.80;99.90
41922;DHT22;27609;51.002;5.354;2022-12-29T04:50:49;10.80;99.90
41922;DHT22;27609;51.002;5.354;2022-12-29T04:53:18;10.70;99.90
41922;DHT22;27609;51.002;5.354;2022-12-29T04:55:44;10.70;99.90
41922;DHT22;27609;51.002;5.354;2022-12-29T04:58:09;10.70;99.90
41922;DHT22;27609;51.002;5.354;2022-12-29T05:00:35;10.70;99.90
41922;DHT22;27609;51.002;5.354;2022-12-29T05:03:01;10.70;99.90
41922;DHT22;27609;51.002;5.354;2022-12-29T05:05:26;10.70;99.90
41922;DHT22;27609;51.002;5.354;2022-12-29T05:07:52;10.60;99.90
41922;DHT22;27609;51.002;5.354;2022-12-29T05:10:19;10.70;99.90
41922;DHT22;27609;51.002;5.354;2022-12-29T05:12:44;10.70;99.90
41922;DHT22;27609;51.002;5.354;2022-12-29T05:15:10;10.70;99.90
41922;DHT22;27609;51.002;5.354;2022-12-29T05:17:36;10.70;99.90
41922;DHT22;27609;51.002;5.354;2022-12-29T05:20:06;10.60;99.90
41922;DHT22;27609;51.002;5.354;2022-12-29T05:22:32;10.60;99.90
41922;DHT22;27609;51.002;5.354;2022-12-29T05:24:57;10.70;99.90
41922;DHT22;27609;51.002;5.354;2022-12-29T05:27:23;10.70;99.90
41922;DHT22;27609;51.002;5.354;2022-12-29T05:29:49;10.80;99.90
41922;DHT22;27609;51.002;5.354;2022-12-29T05:32:14;10.90;99.90
41922;DHT22;27609;51.002;5.354;2022-12-29T05:34:40;11.00;99.90
41922;DHT22;27609;51.002;5.354;2022-12-29T05:37:05;11.10;99.90
41922;DHT22;27609;51.002;5.354;2022-12-29T05:39:33;11.10;99.90
41922;DHT22;27609;51.002;5.354;2022-12-29T05:41:59;11.20;99.90
41922;DHT22;27609;51.002;5.354;2022-12-29T05:44:24;11.30;99.90
41922;DHT22;27609;51.002;5.354;2022-12-29T05:46:50;11.30;99.90
41922;DHT22;27609;51.002;5.354;2022-12-29T05:49:16;11.30;99.90
41922;DHT22;27609;51.002;5.354;2022-12-29T05:51:42;11.20;99.90
41922;DHT22;27609;51.002;5.354;2022-12-29T05:54:07;11.20;99.90
41922;DHT22;27609;51.002;5.354;2022-12-29T05:56:33;11.20;99.90
41922;DHT22;27609;51.002;5.354;2022-12-29T05:58:59;11.30;99.90
41922;DHT22;27609;51.002;5.354;2022-12-29T06:01:24;11.20;99.90
41922;DHT22;27609;51.002;5.354;2022-12-29T06:03:50;11.30;99.90
41922;DHT22;27609;51.002;5.354;2022-12-29T06:06:16;11.30;99.90
41922;DHT22;27609;51.002;5.354;2022-12-29T06:08:41;11.30;99.90
41922;DHT22;27609;51.002;5.354;2022-12-29T06:11:07;11.30;99.90
41922;DHT22;27609;51.002;5.354;2022-12-29T06:13:36;11.20;99.90
41922;DHT22;27609;51.002;5.354;2022-12-29T06:16:02;11.30;99.90
41922;DHT22;27609;51.002;5.354;2022-12-29T06:18:28;11.20;99.90
41922;DHT22;27609;51.002;5.354;2022-12-29T06:20:54;11.20;99.90
41922;DHT22;27609;51.002;5.354;2022-12-29T06:23:20;11.20;99.90
41922;DHT22;27609;51.002;5.354;2022-12-29T06:25:47;11.20;99.90
41922;DHT22;27609;51.002;5.354;2022-12-29T06:28:13;11.20;99.90
41922;DHT22;27609;51.002;5.354;2022-12-29T06:30:39;11.10;99.90
41922;DHT22;27609;51.002;5.354;2022-12-29T06:33:05;11.10;99.90
41922;DHT22;27609;51.002;5.354;2022-12-29T06:35:31;11.20;99.90
41922;DHT22;27609;51.002;5.354;2022-12-29T06:37:57;11.20;99.90
41922;DHT22;27609;51.002;5.354;2022-12-29T06:40:23;11.20;99.90
41922;DHT22;27609;51.002;5.354;2022-12-29T06:42:48;11.20;99.90
41922;DHT22;27609;51.002;5.354;2022-12-29T06:45:14;11.10;99.90
41922;DHT22;27609;51.002;5.354;2022-12-29T06:47:40;11.10;99.90
41922;DHT22;27609;51.002;5.354;2022-12-29T06:50:05;11.10;99.90
41922;DHT22;27609;51.002;5.354;2022-12-29T06:52:31;11.10;99.90
41922;DHT22;27609;51.002;5.354;2022-12-29T06:54:57;11.10;99.90
41922;DHT22;27609;51.002;5.354;2022-12-29T06:57:22;11.10;99.90
41922;DHT22;27609;51.002;5.354;2022-12-29T06:59:48;11.20;99.90
41922;DHT22;27609;51.002;5.354;2022-12-29T07:02:14;11.30;99.90
41922;DHT22;27609;51.002;5.354;2022-12-29T07:04:41;11.10;99.90
41922;DHT22;27609;51.002;5.354;2022-12-29T07:07:07;11.00;99.90
41922;DHT22;27609;51.002;5.354;2022-12-29T07:09:33;11.00;99.90
41922;DHT22;27609;51.002;5.354;2022-12-29T07:11:58;11.10;99.90
41922;DHT22;27609;51.002;5.354;2022-12-29T07:14:24;11.10;99.90
41922;DHT22;27609;51.002;5.354;2022-12-29T07:16:50;11.20;99.90
41922;DHT22;27609;51.002;5.354;2022-12-29T07:19:15;11.20;99.90
41922;DHT22;27609;51.002;5.354;2022-12-29T07:21:41;11.20;99.90
41922;DHT22;27609;51.002;5.354;2022-12-29T07:24:07;11.30;99.90
41922;DHT22;27609;51.002;5.354;2022-12-29T07:26:34;11.20;99.90
41922;DHT22;27609;51.002;5.354;2022-12-29T07:29:02;11.20;99.90
41922;DHT22;27609;51.002;5.354;2022-12-29T07:31:28;11.20;99.90
41922;DHT22;27609;51.002;5.354;2022-12-29T07:33:54;11.20;99.90
41922;DHT22;27609;51.002;5.354;2022-12-29T07:36:20;11.30;99.90
41922;DHT22;27609;51.002;5.354;2022-12-29T07:38:46;11.20;99.90
41922;DHT22;27609;51.002;5.354;2022-12-29T07:41:12;11.10;99.90
41922;DHT22;27609;51.002;5.354;2022-12-29T07:43:37;11.00;99.90
41922;DHT22;27609;51.002;5.354;2022-12-29T07:46:03;11.00;99.90
41922;DHT22;27609;51.002;5.354;2022-12-29T07:48:29;11.00;99.90
41922;DHT22;27609;51.002;5.354;2022-12-29T07:50:54;10.90;99.90
41922;DHT22;27609;51.002;5.354;2022-12-29T07:53:20;10.80;99.90
41922;DHT22;27609;51.002;5.354;2022-12-29T07:55:46;10.80;99.90
41922;DHT22;27609;51.002;5.354;2022-12-29T07:58:11;10.90;99.90
41922;DHT22;27609;51.002;5.354;2022-12-29T08:00:38;10.90;99.90
41922;DHT22;27609;51.002;5.354;2022-12-29T08:03:04;10.90;99.90
41922;DHT22;27609;51.002;5.354;2022-12-29T08:05:33;10.80;99.90
41922;DHT22;27609;51.002;5.354;2022-12-29T08:08:00;10.80;99.90
41922;DHT22;27609;51.002;5.354;2022-12-29T08:10:26;10.80;99.90
41922;DHT22;27609;51.002;5.354;2022-12-29T08:12:51;10.90;99.90
41922;DHT22;27609;51.002;5.354;2022-12-29T08:15:17;10.80;99.90
41922;DHT22;27609;51.002;5.354;2022-12-29T08:17:43;10.80;99.90
41922;DHT22;27609;51.002;5.354;2022-12-29T08:20:09;10.70;99.90
41922;DHT22;27609;51.002;5.354;2022-12-29T08:22:35;10.80;99.90
41922;DHT22;27609;51.002;5.354;2022-12-29T08:25:00;10.90;99.90
41922;DHT22;27609;51.002;5.354;2022-12-29T08:27:26;11.00;99.90
41922;DHT22;27609;51.002;5.354;2022-12-29T08:29:52;11.00;99.90
41922;DHT22;27609;51.002;5.354;2022-12-29T08:32:17;11.00;99.90
41922;DHT22;27609;51.002;5.354;2022-12-29T08:34:43;11.00;99.90
41922;DHT22;27609;51.002;5.354;2022-12-29T08:37:09;11.00;99.90
41922;DHT22;27609;51.002;5.354;2022-12-29T08:39:35;10.90;99.90
41922;DHT22;27609;51.002;5.354;2022-12-29T08:42:00;11.00;99.90
41922;DHT22;27609;51.002;5.354;2022-12-29T08:44:26;11.00;99.90
41922;DHT22;27609;51.002;5.354;2022-12-29T08:46:52;11.00;99.90
41922;DHT22;27609;51.002;5.354;2022-12-29T08:49:17;11.10;99.90
41922;DHT22;27609;51.002;5.354;2022-12-29T08:51:43;11.10;99.90
41922;DHT22;27609;51.002;5.354;2022-12-29T08:54:09;11.10;99.90
41922;DHT22;27609;51.002;5.354;2022-12-29T08:56:35;11.10;99.90
41922;DHT22;27609;51.002;5.354;2022-12-29T08:59:01;11.00;99.90
41922;DHT22;27609;51.002;5.354;2022-12-29T09:01:27;11.00;99.90
41922;DHT22;27609;51.002;5.354;2022-12-29T09:03:53;11.00;99.90
41922;DHT22;27609;51.002;5.354;2022-12-29T09:06:19;11.10;99.90
41922;DHT22;27609;51.002;5.354;2022-12-29T09:08:45;11.20;99.90
41922;DHT22;27609;51.002;5.354;2022-12-29T09:11:17;11.20;99.90
41922;DHT22;27609;51.002;5.354;2022-12-29T09:13:43;11.40;99.90
41922;DHT22;27609;51.002;5.354;2022-12-29T09:16:09;11.30;99.90
41922;DHT22;27609;51.002;5.354;2022-12-29T09:18:35;11.10;99.90
41922;DHT22;27609;51.002;5.354;2022-12-29T09:21:03;11.10;99.90
41922;DHT22;27609;51.002;5.354;2022-12-29T09:23:29;11.10;99.90
41922;DHT22;27609;51.002;5.354;2022-12-29T09:25:55;11.10;99.90
41922;DHT22;27609;51.002;5.354;2022-12-29T09:28:22;11.10;99.90
41922;DHT22;27609;51.002;5.354;2022-12-29T09:30:48;11.20;99.90
41922;DHT22;27609;51.002;5.354;2022-12-29T09:33:14;11.40;99.90
41922;DHT22;27609;51.002;5.354;2022-12-29T09:35:44;11.50;99.90
41922;DHT22;27609;51.002;5.354;2022-12-29T09:38:11;11.50;99.90
41922;DHT22;27609;51.002;5.354;2022-12-29T09:40:38;11.40;99.90
41922;DHT22;27609;51.002;5.354;2022-12-29T09:46:26;11.50;99.90
41922;DHT22;27609;51.002;5.354;2022-12-29T09:51:43;11.50;99.90
41922;DHT22;27609;51.002;5.354;2022-12-29T09:54:33;11.40;99.90
41922;DHT22;27609;51.002;5.354;2022-12-29T09:57:00;11.50;99.90
41922;DHT22;27609;51.002;5.354;2022-12-29T09:59:56;12.20;99.90
41922;DHT22;27609;51.002;5.354;2022-12-29T10:02:42;12.80;99.90
41922;DHT22;27609;51.002;5.354;2022-12-29T10:10:59;12.80;99.90
41922;DHT22;27609;51.002;5.354;2022-12-29T10:17:17;13.10;99.90
41922;DHT22;27609;51.002;5.354;2022-12-29T10:20:06;12.80;99.90
41922;DHT22;27609;51.002;5.354;2022-12-29T10:22:51;12.40;99.90
41922;DHT22;27609;51.002;5.354;2022-12-29T10:25:24;12.00;99.90
41922;DHT22;27609;51.002;5.354;2022-12-29T10:27:53;11.80;99.90
41922;DHT22;27609;51.002;5.354;2022-12-29T10:30:20;12.00;99.90
41922;DHT22;27609;51.002;5.354;2022-12-29T10:32:58;12.10;99.90
41922;DHT22;27609;51.002;5.354;2022-12-29T10:35:26;12.10;99.90
41922;DHT22;27609;51.002;5.354;2022-12-29T10:43:52;12.20;99.90
41922;DHT22;27609;51.002;5.354;2022-12-29T10:46:23;12.40;99.90
41922;DHT22;27609;51.002;5.354;2022-12-29T10:48:50;12.60;99.90
41922;DHT22;27609;51.002;5.354;2022-12-29T10:51:21;13.00;99.90
41922;DHT22;27609;51.002;5.354;2022-12-29T10:54:21;12.90;99.90
41922;DHT22;27609;51.002;5.354;2022-12-29T10:56:53;12.80;99.90
41922;DHT22;27609;51.002;5.354;2022-12-29T10:59:25;12.60;99.90
41922;DHT22;27609;51.002;5.354;2022-12-29T11:05:02;12.70;99.90
41922;DHT22;27609;51.002;5.354;2022-12-29T11:07:30;12.60;99.90
41922;DHT22;27609;51.002;5.354;2022-12-29T11:10:20;12.50;99.90
41922;DHT22;27609;51.002;5.354;2022-12-29T11:13:00;12.30;99.90
41922;DHT22;27609;51.002;5.354;2022-12-29T11:15:26;12.20;99.90
41922;DHT22;27609;51.002;5.354;2022-12-29T11:17:57;12.00;99.90
41922;DHT22;27609;51.002;5.354;2022-12-29T11:20:38;12.00;99.90
41922;DHT22;27609;51.002;5.354;2022-12-29T11:23:05;11.90;99.90
41922;DHT22;27609;51.002;5.354;2022-12-29T11:25:31;11.80;99.90
41922;DHT22;27609;51.002;5.354;2022-12-29T11:28:02;11.80;99.90
41922;DHT22;27609;51.002;5.354;2022-12-29T11:30:31;11.70;99.90
41922;DHT22;27609;51.002;5.354;2022-12-29T11:32:58;11.80;99.90
41922;DHT22;27609;51.002;5.354;2022-12-29T11:35:42;11.80;99.90
41922;DHT22;27609;51.002;5.354;2022-12-29T11:38:23;11.70;99.90
41922;DHT22;27609;51.002;5.354;2022-12-29T11:40:50;11.80;99.90
41922;DHT22;27609;51.002;5.354;2022-12-29T11:43:26;11.80;99.90
41922;DHT22;27609;51.002;5.354;2022-12-29T11:45:55;11.80;99.90
41922;DHT22;27609;51.002;5.354;2022-12-29T11:48:22;11.90;99.90
41922;DHT22;27609;51.002;5.354;2022-12-29T11:50:57;11.80;99.90
41922;DHT22;27609;51.002;5.354;2022-12-29T11:53:45;11.70;99.90
41922;DHT22;27609;51.002;5.354;2022-12-29T11:56:17;11.70;99.90
41922;DHT22;27609;51.002;5.354;2022-12-29T11:58:44;11.50;99.90
41922;DHT22;27609;51.002;5.354;2022-12-29T12:01:14;11.70;99.90
41922;DHT22;27609;51.002;5.354;2022-12-29T12:03:46;11.80;99.90
41922;DHT22;27609;51.002;5.354;2022-12-29T12:06:17;11.80;99.90
41922;DHT22;27609;51.002;5.354;2022-12-29T12:08:56;11.90;99.90
41922;DHT22;27609;51.002;5.354;2022-12-29T12:11:33;12.20;99.90
41922;DHT22;27609;51.002;5.354;2022-12-29T12:16:53;13.20;99.90
41922;DHT22;27609;51.002;5.354;2022-12-29T12:25:21;14.10;99.90
41922;DHT22;27609;51.002;5.354;2022-12-29T12:27:59;13.30;99.90
41922;DHT22;27609;51.002;5.354;2022-12-29T12:30:29;13.00;99.90
41922;DHT22;27609;51.002;5.354;2022-12-29T12:42:29;12.20;99.90
41922;DHT22;27609;51.002;5.354;2022-12-29T12:47:28;12.10;99.90
41922;DHT22;27609;51.002;5.354;2022-12-29T12:58:48;12.00;99.90
41922;DHT22;27609;51.002;5.354;2022-12-29T13:01:42;11.90;99.90
41922;DHT22;27609;51.002;5.354;2022-12-29T13:10:05;11.70;99.90
41922;DHT22;27609;51.002;5.354;2022-12-29T13:24:02;11.60;99.90
41922;DHT22;27609;51.002;5.354;2022-12-29T13:26:42;11.50;99.90
41922;DHT22;27609;51.002;5.354;2022-12-29T13:29:53;11.70;99.90
41922;DHT22;27609;51.002;5.354;2022-12-29T13:35:21;11.70;99.90
41922;DHT22;27609;51.002;5.354;2022-12-29T13:37:55;11.70;99.90
41922;DHT22;27609;51.002;5.354;2022-12-29T13:40:26;11.60;99.90
41922;DHT22;27609;51.002;5.354;2022-12-29T13:42:55;11.60;99.90
41922;DHT22;27609;51.002;5.354;2022-12-29T13:45:24;11.60;99.90
41922;DHT22;27609;51.002;5.354;2022-12-29T13:47:59;11.70;99.90
41922;DHT22;27609;51.002;5.354;2022-12-29T13:50:28;11.60;99.90
41922;DHT22;27609;51.002;5.354;2022-12-29T13:53:19;11.50;99.90
41922;DHT22;27609;51.002;5.354;2022-12-29T13:58:53;11.50;99.90
41922;DHT22;27609;51.002;5.354;2022-12-29T14:01:30;11.40;99.90
41922;DHT22;27609;51.002;5.354;2022-12-29T14:04:00;11.40;99.90
41922;DHT22;27609;51.002;5.354;2022-12-29T14:06:33;11.20;99.90
41922;DHT22;27609;51.002;5.354;2022-12-29T14:09:04;11.30;99.90
41922;DHT22;27609;51.002;5.354;2022-12-29T14:11:36;11.30;99.90
41922;DHT22;27609;51.002;5.354;2022-12-29T14:14:24;11.20;99.90
41922;DHT22;27609;51.002;5.354;2022-12-29T14:16:51;11.20;99.90
41922;DHT22;27609;51.002;5.354;2022-12-29T14:19:19;11.10;99.90
41922;DHT22;27609;51.002;5.354;2022-12-29T14:21:53;11.20;99.90
41922;DHT22;27609;51.002;5.354;2022-12-29T14:24:43;11.20;99.90
41922;DHT22;27609;51.002;5.354;2022-12-29T14:34:50;10.80;99.90
41922;DHT22;27609;51.002;5.354;2022-12-29T14:37:27;10.60;99.90
41922;DHT22;27609;51.002;5.354;2022-12-29T14:40:18;10.60;99.90
41922;DHT22;27609;51.002;5.354;2022-12-29T14:42:46;10.50;99.90
41922;DHT22;27609;51.002;5.354;2022-12-29T14:47:49;10.50;99.90
41922;DHT22;27609;51.002;5.354;2022-12-29T14:50:17;10.40;99.90
41922;DHT22;27609;51.002;5.354;2022-12-29T14:52:59;10.30;99.90
41922;DHT22;27609;51.002;5.354;2022-12-29T14:58:06;10.10;99.90
41922;DHT22;27609;51.002;5.354;2022-12-29T15:00:36;10.10;99.90
41922;DHT22;27609;51.002;5.354;2022-12-29T15:03:07;10.00;99.90
41922;DHT22;27609;51.002;5.354;2022-12-29T15:08:18;9.90;99.90
41922;DHT22;27609;51.002;5.354;2022-12-29T15:13:38;9.90;99.90
41922;DHT22;27609;51.002;5.354;2022-12-29T15:16:20;10.00;99.90
41922;DHT22;27609;51.002;5.354;2022-12-29T15:18:46;10.00;99.90
41922;DHT22;27609;51.002;5.354;2022-12-29T15:21:13;9.90;99.90
41922;DHT22;27609;51.002;5.354;2022-12-29T15:23:43;9.80;99.90
41922;DHT22;27609;51.002;5.354;2022-12-29T15:26:10;9.90;99.90
41922;DHT22;27609;51.002;5.354;2022-12-29T15:31:15;10.10;99.90
41922;DHT22;27609;51.002;5.354;2022-12-29T15:33:46;10.10;99.90
41922;DHT22;27609;51.002;5.354;2022-12-29T15:36:36;10.20;99.90
41922;DHT22;27609;51.002;5.354;2022-12-29T15:39:19;10.20;99.90
41922;DHT22;27609;51.002;5.354;2022-12-29T15:44:58;10.10;99.90
41922;DHT22;27609;51.002;5.354;2022-12-29T15:47:25;10.00;99.90
41922;DHT22;27609;51.002;5.354;2022-12-29T15:50:03;9.90;99.90
41922;DHT22;27609;51.002;5.354;2022-12-29T15:52:31;9.80;99.90
41922;DHT22;27609;51.002;5.354;2022-12-29T15:54:58;9.80;99.90
41922;DHT22;27609;51.002;5.354;2022-12-29T15:57:25;9.80;99.90
41922;DHT22;27609;51.002;5.354;2022-12-29T15:59:52;9.80;99.90
41922;DHT22;27609;51.002;5.354;2022-12-29T16:02:19;9.80;99.90
41922;DHT22;27609;51.002;5.354;2022-12-29T16:04:45;10.00;99.90
41922;DHT22;27609;51.002;5.354;2022-12-29T16:07:33;9.90;99.90
41922;DHT22;27609;51.002;5.354;2022-12-29T16:10:02;9.90;99.90
41922;DHT22;27609;51.002;5.354;2022-12-29T16:12:35;9.90;99.90
41922;DHT22;27609;51.002;5.354;2022-12-29T16:15:05;9.90;99.90
41922;DHT22;27609;51.002;5.354;2022-12-29T16:17:34;9.90;99.90
41922;DHT22;27609;51.002;5.354;2022-12-29T16:20:04;9.50;99.90
41922;DHT22;27609;51.002;5.354;2022-12-29T16:22:42;9.00;99.90
41922;DHT22;27609;51.002;5.354;2022-12-29T16:25:34;8.90;99.90
41922;DHT22;27609;51.002;5.354;2022-12-29T16:28:02;8.60;99.90
41922;DHT22;27609;51.002;5.354;2022-12-29T16:30:31;8.60;99.90
41922;DHT22;27609;51.002;5.354;2022-12-29T16:33:00;8.50;99.90
41922;DHT22;27609;51.002;5.354;2022-12-29T16:35:44;8.50;99.90
41922;DHT22;27609;51.002;5.354;2022-12-29T16:41:02;8.20;99.90
41922;DHT22;27609;51.002;5.354;2022-12-29T16:43:29;8.20;99.90
41922;DHT22;27609;51.002;5.354;2022-12-29T16:48:51;8.00;99.90
41922;DHT22;27609;51.002;5.354;2022-12-29T16:51:34;8.00;99.90
41922;DHT22;27609;51.002;5.354;2022-12-29T16:54:02;7.90;99.90
41922;DHT22;27609;51.002;5.354;2022-12-29T16:56:33;7.90;99.90
41922;DHT22;27609;51.002;5.354;2022-12-29T16:59:08;7.90;99.90
41922;DHT22;27609;51.002;5.354;2022-12-29T17:01:42;7.90;99.90
41922;DHT22;27609;51.002;5.354;2022-12-29T17:04:10;7.90;99.90
41922;DHT22;27609;51.002;5.354;2022-12-29T17:06:36;7.90;99.90
41922;DHT22;27609;51.002;5.354;2022-12-29T17:09:12;8.00;99.90
41922;DHT22;27609;51.002;5.354;2022-12-29T17:11:41;7.80;99.90
41922;DHT22;27609;51.002;5.354;2022-12-29T17:14:35;7.80;99.90
41922;DHT22;27609;51.002;5.354;2022-12-29T17:19:37;7.80;99.90
41922;DHT22;27609;51.002;5.354;2022-12-29T17:22:11;7.90;99.90
41922;DHT22;27609;51.002;5.354;2022-12-29T17:24:37;7.90;99.90
41922;DHT22;27609;51.002;5.354;2022-12-29T17:27:04;7.90;99.90
41922;DHT22;27609;51.002;5.354;2022-12-29T17:29:35;7.90;99.90
41922;DHT22;27609;51.002;5.354;2022-12-29T17:32:04;7.90;99.90
41922;DHT22;27609;51.002;5.354;2022-12-29T17:34:31;7.90;99.90
41922;DHT22;27609;51.002;5.354;2022-12-29T17:36:57;8.00;99.90
41922;DHT22;27609;51.002;5.354;2022-12-29T17:39:23;8.00;99.90
41922;DHT22;27609;51.002;5.354;2022-12-29T17:41:49;8.00;99.90
41922;DHT22;27609;51.002;5.354;2022-12-29T17:44:19;7.80;99.90
41922;DHT22;27609;51.002;5.354;2022-12-29T17:46:46;7.90;99.90
41922;DHT22;27609;51.002;5.354;2022-12-29T17:49:14;7.90;99.90
41922;DHT22;27609;51.002;5.354;2022-12-29T17:51:42;7.90;99.90
41922;DHT22;27609;51.002;5.354;2022-12-29T17:54:21;7.80;99.90
41922;DHT22;27609;51.002;5.354;2022-12-29T17:56:47;7.80;99.90
41922;DHT22;27609;51.002;5.354;2022-12-29T17:59:13;7.80;99.90
41922;DHT22;27609;51.002;5.354;2022-12-29T18:01:42;7.80;99.90
41922;DHT22;27609;51.002;5.354;2022-12-29T18:04:15;7.80;99.90
41922;DHT22;27609;51.002;5.354;2022-12-29T18:06:41;7.90;99.90
41922;DHT22;27609;51.002;5.354;2022-12-29T18:09:08;7.90;99.90
41922;DHT22;27609;51.002;5.354;2022-12-29T18:11:39;8.00;99.90
41922;DHT22;27609;51.002;5.354;2022-12-29T18:14:14;8.00;99.90
41922;DHT22;27609;51.002;5.354;2022-12-29T18:16:41;8.30;99.90
41922;DHT22;27609;51.002;5.354;2022-12-29T18:19:06;8.10;99.90